Time;durP1;ratioP1;P1;durP2;ratioP2;P2;SDS_P1;SDS_P2;PMS_P1;PMS_P2;Temp;Humidity;BMP_temperature;BMP_pressure;BME280_temperature;BME280_humidity;BME280_pressure;Samples;Min_cycle;Max_cycle;Signal;HPM_P1;HPM_P2
2021/04/27 00:00:47;;;;;;;10.00;7.50;;;;;;;7.66;56.27;91914.63;2042088;70;20151;-84
2021/04/27 00:03:13;;;;;;;14.02;8.05;;;;;;;7.64;56.40;91912.44;2042056;70;20147;-82
2021/04/27 00:05:39;;;;;;;10.73;7.47;;;;;;;7.76;56.37;91918.03;2041405;70;20147;-83
2021/04/27 00:08:05;;;;;;;12.40;7.93;;;;;;;7.47;56.77;91902.38;2041930;70;20154;-81
2021/04/27 00:10:31;;;;;;;13.65;7.82;;;;;;;7.49;56.73;91905.28;2041988;70;20191;-82
2021/04/27 00:12:57;;;;;;;14.77;7.88;;;;;;;7.59;55.92;91903.06;2041814;70;20303;-81
2021/04/27 00:15:25;;;;;;;13.32;8.07;;;;;;;7.46;56.78;91903.69;2042049;70;20143;-81
2021/04/27 00:17:52;;;;;;;11.52;7.68;;;;;;;7.44;57.66;91895.16;2042007;70;20163;-82
2021/04/27 00:20:21;;;;;;;12.57;7.53;;;;;;;7.36;57.58;91889.81;2041894;70;20159;-82
2021/04/27 00:22:47;;;;;;;11.50;7.20;;;;;;;7.37;57.97;91891.28;2041440;70;20186;-81
2021/04/27 00:25:14;;;;;;;10.82;7.60;;;;;;;7.32;57.75;91888.84;2041985;70;20150;-83
2021/04/27 00:27:40;;;;;;;12.77;8.10;;;;;;;7.16;58.25;91888.63;2038422;70;20219;-81
2021/04/27 00:30:07;;;;;;;10.25;7.03;;;;;;;7.37;56.95;91880.06;2041869;70;20206;-81
2021/04/27 00:32:33;;;;;;;11.15;7.45;;;;;;;7.38;57.28;91887.16;2041929;70;20147;-81
2021/04/27 00:35:00;;;;;;;13.15;8.32;;;;;;;7.45;57.41;91879.81;2041846;70;20155;-82
2021/04/27 00:37:25;;;;;;;12.50;8.10;;;;;;;7.19;57.17;91875.47;2041843;70;20151;-81
2021/04/27 00:39:51;;;;;;;14.40;8.68;;;;;;;7.16;58.18;91873.91;2041986;70;20614;-85
2021/04/27 00:42:17;;;;;;;12.68;8.63;;;;;;;7.20;58.49;91869.28;2041815;70;20182;-83
2021/04/27 00:44:42;;;;;;;11.60;7.88;;;;;;;7.06;57.75;91865.63;2041970;70;20606;-83
2021/04/27 00:47:08;;;;;;;12.25;8.05;;;;;;;7.19;57.63;91864.25;2041398;70;20207;-84
2021/04/27 00:49:34;;;;;;;15.18;8.45;;;;;;;7.03;58.81;91870.38;2041919;70;20138;-83
2021/04/27 00:52:01;;;;;;;12.57;8.40;;;;;;;6.97;58.36;91864.41;2041965;70;20163;-84
2021/04/27 00:54:27;;;;;;;14.65;8.45;;;;;;;7.11;57.51;91862.47;2041479;70;20161;-84
2021/04/27 00:56:53;;;;;;;14.85;7.97;;;;;;;7.06;58.40;91860.75;2041920;70;20135;-84
2021/04/27 00:59:22;;;;;;;11.63;8.32;;;;;;;6.99;58.82;91861.00;2041344;70;20618;-87
2021/04/27 01:01:48;;;;;;;14.95;8.27;;;;;;;6.74;59.39;91853.94;2038631;70;20214;-84
2021/04/27 01:04:14;;;;;;;13.23;8.13;;;;;;;6.83;58.73;91852.38;2041976;70;20167;-85
2021/04/27 01:06:39;;;;;;;14.45;8.60;;;;;;;6.86;58.70;91860.25;2041279;70;20140;-84
2021/04/27 01:09:15;;;;;;;13.75;8.32;;;;;;;6.80;59.29;91856.38;2041283;70;20147;-84
2021/04/27 01:12:07;;;;;;;12.20;8.27;;;;;;;6.65;60.22;91862.44;2041865;70;20171;-85
2021/04/27 01:14:40;;;;;;;13.35;8.45;;;;;;;6.63;59.42;91863.75;2041248;70;20135;-83
2021/04/27 01:17:13;;;;;;;14.75;7.97;;;;;;;6.54;59.58;91858.28;2041504;70;20683;-83
2021/04/27 01:20:05;;;;;;;13.35;8.00;;;;;;;6.49;60.50;91857.28;2041608;70;20234;-83
2021/04/27 01:23:11;;;;;;;12.88;7.88;;;;;;;6.41;60.21;91851.19;2041498;70;20159;-84
2021/04/27 01:26:07;;;;;;;14.80;8.82;;;;;;;6.61;60.39;91852.47;2041305;70;20143;-83
2021/04/27 01:28:41;;;;;;;12.80;7.80;;;;;;;6.40;60.34;91846.22;2041577;70;20167;-81
2021/04/27 01:31:08;;;;;;;12.82;7.95;;;;;;;6.69;59.97;91843.09;2043446;70;20143;-83
2021/04/27 01:33:35;;;;;;;11.40;7.90;;;;;;;6.39;61.00;91853.88;2041946;70;20151;-85
2021/04/27 01:36:04;;;;;;;12.65;7.63;;;;;;;6.36;60.05;91849.47;2042028;70;20266;-85
2021/04/27 01:38:38;;;;;;;14.45;8.30;;;;;;;6.29;60.66;91853.25;2041804;70;20207;-85
2021/04/27 01:41:05;;;;;;;13.70;8.50;;;;;;;6.34;60.71;91850.09;2041523;70;20247;-85
2021/04/27 01:43:31;;;;;;;14.93;8.80;;;;;;;6.23;61.19;91853.59;2041195;70;20162;-85
2021/04/27 01:46:01;;;;;;;14.63;8.68;;;;;;;6.23;61.22;91855.66;2041867;70;20162;-86
2021/04/27 01:48:27;;;;;;;13.18;8.98;;;;;;;6.18;61.07;91848.34;2036102;70;20610;-86
2021/04/27 01:50:55;;;;;;;11.88;8.32;;;;;;;6.31;61.16;91848.50;2041460;70;20172;-86
2021/04/27 01:53:41;;;;;;;15.70;8.45;;;;;;;6.40;60.60;91851.81;2041811;70;20219;-86
2021/04/27 01:56:07;;;;;;;15.75;8.82;;;;;;;6.01;62.29;91849.41;2038922;70;20143;-86
2021/04/27 01:58:34;;;;;;;16.65;8.40;;;;;;;6.19;60.21;91847.03;2041359;70;20167;-86
2021/04/27 02:01:00;;;;;;;13.52;8.40;;;;;;;6.31;60.72;91847.78;2041949;70;20625;-84
2021/04/27 02:03:27;;;;;;;15.90;8.77;;;;;;;6.33;59.68;91845.84;2041539;70;20143;-87
2021/04/27 02:06:15;;;;;;;11.43;8.00;;;;;;;6.22;60.57;91845.81;2040099;70;20159;-87
2021/04/27 02:08:48;;;;;;;15.25;9.10;;;;;;;6.07;61.48;91844.91;2042411;70;20669;-87
2021/04/27 02:11:16;;;;;;;12.50;8.75;;;;;;;6.39;60.01;91837.09;2041824;70;20171;-87
2021/04/27 02:13:42;;;;;;;13.32;8.48;;;;;;;6.42;60.46;91835.91;2041662;70;20254;-85
2021/04/27 02:16:14;;;;;;;15.00;7.90;;;;;;;6.24;59.86;91840.34;2041137;70;20150;-85
2021/04/27 02:18:57;;;;;;;12.52;8.35;;;;;;;6.27;61.02;91831.47;2041215;70;20147;-82
2021/04/27 02:21:27;;;;;;;15.50;8.07;;;;;;;6.42;59.60;91832.38;2041861;70;20517;-84
2021/04/27 02:24:12;;;;;;;13.57;7.90;;;;;;;6.14;61.24;91831.31;2041983;70;20214;-85
2021/04/27 02:26:43;;;;;;;12.43;8.80;;;;;;;6.12;60.77;91823.56;2042129;70;20163;-83
2021/04/27 02:29:30;;;;;;;11.45;7.65;;;;;;;6.22;60.94;91829.03;2041941;70;20159;-84
2021/04/27 02:32:00;;;;;;;11.52;8.38;;;;;;;6.25;60.62;91817.38;2042267;70;20143;-83
2021/04/27 02:34:28;;;;;;;15.10;9.00;;;;;;;5.94;60.46;91819.59;2041516;70;20186;-86
2021/04/27 02:36:56;;;;;;;12.25;8.00;;;;;;;5.87;61.99;91821.25;2041539;70;20617;-84
2021/04/27 02:39:32;;;;;;;13.02;8.77;;;;;;;5.86;61.46;91811.41;2038968;70;20183;-85
2021/04/27 02:41:58;;;;;;;14.43;8.60;;;;;;;5.82;62.64;91813.97;2042081;70;20291;-84
2021/04/27 02:44:42;;;;;;;14.00;8.27;;;;;;;5.83;61.83;91812.63;2041980;70;20174;-85
2021/04/27 02:47:14;;;;;;;15.90;8.65;;;;;;;5.83;61.21;91812.63;2041510;70;20495;-85
2021/04/27 02:49:40;;;;;;;13.45;8.00;;;;;;;5.94;62.03;91805.63;2041471;70;20139;-83
2021/04/27 02:52:13;;;;;;;13.25;8.07;;;;;;;5.62;62.82;91807.81;2041443;70;20156;-84
2021/04/27 02:54:49;;;;;;;13.27;8.52;;;;;;;5.73;62.34;91814.78;2041417;70;20166;-84
2021/04/27 02:57:15;;;;;;;13.43;7.93;;;;;;;5.79;61.49;91796.34;2041389;70;20507;-82
2021/04/27 02:59:42;;;;;;;14.95;8.88;;;;;;;5.74;61.31;91805.78;2042177;70;20259;-85
2021/04/27 03:02:08;;;;;;;14.38;8.63;;;;;;;5.62;62.65;91793.84;2041403;70;20247;-85
2021/04/27 03:04:35;;;;;;;13.52;8.45;;;;;;;5.37;62.57;91793.63;2038692;70;20155;-84
2021/04/27 03:07:09;;;;;;;14.93;8.43;;;;;;;5.44;63.05;91803.84;2041995;70;20196;-85
2021/04/27 03:09:39;;;;;;;15.48;8.70;;;;;;;5.63;62.56;91797.34;2041441;70;20159;-85
2021/04/27 03:12:05;;;;;;;17.50;8.25;;;;;;;5.51;63.06;91786.16;2042070;70;20586;-85
2021/04/27 03:14:35;;;;;;;16.42;8.38;;;;;;;5.55;63.76;91792.00;2041378;70;20144;-85
2021/04/27 03:17:02;;;;;;;15.50;9.15;;;;;;;5.40;63.30;91784.75;2041442;70;20167;-83
2021/04/27 03:19:28;;;;;;;13.35;9.27;;;;;;;5.49;63.20;91774.84;2041940;70;20171;-83
2021/04/27 03:22:14;;;;;;;15.75;8.60;;;;;;;5.67;62.48;91789.97;2042077;70;20155;-85
2021/04/27 03:24:39;;;;;;;13.82;8.70;;;;;;;5.66;62.96;91790.59;2042012;70;20131;-82
2021/04/27 03:27:07;;;;;;;16.40;9.50;;;;;;;5.45;63.16;91792.09;2042264;70;20166;-86
2021/04/27 03:30:08;;;;;;;14.63;9.82;;;;;;;5.47;63.00;91789.41;2041220;70;20142;-84
2021/04/27 03:32:35;;;;;;;13.45;8.75;;;;;;;5.17;62.95;91790.22;2041882;70;20148;-84
2021/04/27 03:35:04;;;;;;;14.07;8.88;;;;;;;5.28;64.17;91787.50;2041805;70;20182;-85
2021/04/27 03:37:30;;;;;;;12.98;9.27;;;;;;;5.38;63.68;91786.69;2042558;70;20175;-83
2021/04/27 03:39:55;;;;;;;13.73;9.05;;;;;;;5.26;64.11;91770.63;2041785;70;20167;-84
2021/04/27 03:42:21;;;;;;;15.32;9.27;;;;;;;5.26;63.80;91775.47;2042250;70;20167;-83
2021/04/27 03:44:49;;;;;;;15.50;9.27;;;;;;;5.02;64.27;91783.72;2042343;70;20654;-83
2021/04/27 03:47:16;;;;;;;12.80;9.30;;;;;;;5.29;64.20;91772.22;2042524;70;20174;-83
2021/04/27 03:49:43;;;;;;;12.85;9.15;;;;;;;5.40;63.47;91781.25;2042017;70;20605;-82
2021/04/27 03:52:08;;;;;;;14.32;9.45;;;;;;;5.03;63.62;91770.50;2042526;70;20147;-83
2021/04/27 03:54:34;;;;;;;13.98;9.52;;;;;;;5.16;63.80;91777.59;2041748;70;20163;-83
2021/04/27 03:57:02;;;;;;;13.95;9.32;;;;;;;5.23;63.72;91766.25;2042291;70;20139;-84
2021/04/27 03:59:29;;;;;;;15.10;9.18;;;;;;;5.08;63.35;91766.63;2038708;70;20673;-83
2021/04/27 04:01:56;;;;;;;15.55;9.15;;;;;;;5.18;62.94;91769.34;2042553;70;20290;-85
2021/04/27 04:04:24;;;;;;;16.55;9.30;;;;;;;5.11;63.46;91776.59;2041751;70;20150;-82
2021/04/27 04:07:08;;;;;;;13.43;9.05;;;;;;;5.19;63.39;91773.63;2042412;70;20158;-85
2021/04/27 04:09:54;;;;;;;19.50;9.98;;;;;;;4.99;63.17;91773.75;2042196;70;20585;-83
2021/04/27 04:12:24;;;;;;;17.30;9.48;;;;;;;5.08;63.52;91778.53;2041738;70;20590;-86
2021/04/27 04:14:49;;;;;;;16.95;9.23;;;;;;;4.91;63.56;91776.03;2041708;70;20146;-82
2021/04/27 04:17:23;;;;;;;16.17;8.80;;;;;;;5.15;63.22;91784.53;2041894;70;20135;-84
2021/04/27 04:19:50;;;;;;;13.32;9.20;;;;;;;4.90;63.83;91780.09;2042590;70;20131;-83
2021/04/27 04:22:16;;;;;;;15.18;10.23;;;;;;;4.93;65.05;91778.19;2041775;70;20262;-86
2021/04/27 04:24:51;;;;;;;14.82;9.45;;;;;;;4.78;65.66;91782.84;2041827;70;20619;-87
2021/04/27 04:27:19;;;;;;;19.10;10.45;;;;;;;4.99;65.22;91779.31;2039141;70;20143;-85
2021/04/27 04:29:56;;;;;;;16.75;10.55;;;;;;;4.92;65.24;91783.06;2043173;70;20147;-85
2021/04/27 04:32:37;;;;;;;14.40;9.25;;;;;;;4.71;65.41;91763.50;2042512;70;20150;-84
2021/04/27 04:35:24;;;;;;;18.00;10.15;;;;;;;4.65;64.88;91786.13;2042605;70;20170;-86
2021/04/27 04:38:11;;;;;;;21.52;10.65;;;;;;;4.81;64.63;91792.81;2039923;70;20223;-85
2021/04/27 04:40:56;;;;;;;19.40;10.40;;;;;;;4.91;65.00;91778.06;2042622;70;20187;-86
2021/04/27 04:43:40;;;;;;;21.42;12.85;;;;;;;4.55;67.26;91788.25;2042542;70;20154;-86
2021/04/27 04:46:25;;;;;;;19.60;12.40;;;;;;;4.69;66.32;91792.00;2042679;70;20307;-86
2021/04/27 04:49:24;;;;;;;21.40;11.00;;;;;;;4.69;65.79;91792.00;2039718;70;20155;-86
2021/04/27 04:51:53;;;;;;;18.60;10.85;;;;;;;4.65;65.52;91793.78;2042380;70;20191;-85
2021/04/27 04:54:40;;;;;;;16.88;10.57;;;;;;;4.77;65.42;91792.53;2042301;70;20594;-86
2021/04/27 04:57:15;;;;;;;17.08;11.00;;;;;;;4.68;65.81;91789.81;2039363;70;20626;-87
2021/04/27 04:59:41;;;;;;;19.67;10.82;;;;;;;4.83;65.71;91789.41;2042445;70;20159;-86
2021/04/27 05:02:07;;;;;;;21.98;11.57;;;;;;;4.92;65.82;91793.47;2042363;70;20127;-86
2021/04/27 05:04:54;;;;;;;25.92;13.70;;;;;;;4.90;65.36;91787.75;2041768;70;20515;-83
2021/04/27 05:07:57;;;;;;;25.58;13.10;;;;;;;5.00;65.51;91791.22;2042728;70;20158;-83
2021/04/27 05:10:49;;;;;;;27.05;12.55;;;;;;;4.91;65.73;91787.19;2041841;70;20182;-85
2021/04/27 05:13:31;;;;;;;20.92;12.73;;;;;;;4.72;66.04;91790.81;2041756;70;20169;-84
2021/04/27 05:15:56;;;;;;;19.85;12.50;;;;;;;4.80;66.26;91793.38;2041616;70;20148;-85
2021/04/27 05:18:22;;;;;;;23.48;11.73;;;;;;;4.91;66.13;91789.97;2042117;70;20190;-86
2021/04/27 05:20:48;;;;;;;20.65;11.57;;;;;;;5.00;65.51;91782.88;2042318;70;20567;-85
2021/04/27 05:23:14;;;;;;;15.57;10.93;;;;;;;5.17;65.11;91788.16;2042000;70;20155;-85
2021/04/27 05:25:46;;;;;;;17.73;11.35;;;;;;;5.04;65.52;91783.88;2041406;70;20151;-86
2021/04/27 05:28:14;;;;;;;19.52;11.55;;;;;;;5.08;64.54;91777.78;2041385;70;20214;-85
2021/04/27 05:30:39;;;;;;;19.63;11.07;;;;;;;4.95;65.10;91781.88;2042169;70;20136;-85
2021/04/27 05:33:05;;;;;;;20.88;11.25;;;;;;;5.08;65.60;91777.78;2042322;70;20143;-83
2021/04/27 05:35:31;;;;;;;18.85;11.23;;;;;;;5.13;65.67;91781.59;2042193;70;20142;-83
2021/04/27 05:37:57;;;;;;;19.27;11.43;;;;;;;5.19;65.91;91782.72;2042199;70;20144;-82
2021/04/27 05:40:23;;;;;;;18.45;11.20;;;;;;;5.01;65.56;91775.94;2042091;70;20196;-84
2021/04/27 05:42:48;;;;;;;16.02;10.60;;;;;;;5.17;65.67;91771.41;2042127;70;20304;-84
2021/04/27 05:45:14;;;;;;;20.52;9.85;;;;;;;5.28;64.76;91772.81;2041563;70;20250;-85
2021/04/27 05:47:40;;;;;;;17.15;10.88;;;;;;;5.04;66.13;91769.91;2041884;70;20148;-86
2021/04/27 05:50:07;;;;;;;16.13;10.98;;;;;;;4.90;67.12;91771.03;2041704;70;20226;-85
2021/04/27 05:52:32;;;;;;;20.77;9.75;;;;;;;5.07;65.82;91765.19;2041860;70;20483;-84
2021/04/27 05:54:58;;;;;;;19.70;11.90;;;;;;;5.18;66.12;91763.78;2041648;70;20222;-85
2021/04/27 05:57:24;;;;;;;20.83;12.15;;;;;;;5.08;66.33;91756.22;2041537;70;20231;-84
2021/04/27 05:59:49;;;;;;;18.75;11.05;;;;;;;5.09;66.82;91768.84;2041758;70;20143;-85
2021/04/27 06:02:15;;;;;;;19.40;11.68;;;;;;;5.27;65.74;91755.34;2042028;70;20151;-84
2021/04/27 06:04:40;;;;;;;17.92;11.60;;;;;;;5.27;65.98;91763.72;2041808;70;20188;-82
2021/04/27 06:07:08;;;;;;;20.25;11.18;;;;;;;5.46;65.17;91759.31;2041698;70;20246;-85
2021/04/27 06:09:34;;;;;;;19.42;11.18;;;;;;;5.52;65.17;91760.41;2041827;70;20147;-85
2021/04/27 06:12:02;;;;;;;21.73;11.60;;;;;;;5.40;65.55;91761.69;2041176;70;20259;-84
2021/04/27 06:14:28;;;;;;;21.13;12.15;;;;;;;5.14;66.43;91764.25;2041653;70;20242;-84
2021/04/27 06:16:54;;;;;;;18.88;12.15;;;;;;;5.29;66.28;91763.84;2041697;70;20634;-84
2021/04/27 06:19:19;;;;;;;26.35;13.07;;;;;;;5.41;66.23;91766.69;2041711;70;20143;-83
2021/04/27 06:21:46;;;;;;;20.40;12.20;;;;;;;5.54;65.54;91757.78;2041671;70;20518;-82
2021/04/27 06:24:12;;;;;;;21.08;12.15;;;;;;;5.78;64.64;91763.44;2041665;70;20159;-83
2021/04/27 06:26:38;;;;;;;18.10;11.48;;;;;;;5.03;67.19;91762.84;2041730;70;20150;-84
2021/04/27 06:29:04;;;;;;;23.77;11.93;;;;;;;5.65;66.22;91750.75;2041552;70;20206;-83
2021/04/27 06:31:31;;;;;;;18.88;11.95;;;;;;;5.98;66.99;91764.72;2041682;70;20166;-84
2021/04/27 06:33:57;;;;;;;23.13;12.10;;;;;;;6.33;64.66;91761.25;2041601;70;20199;-82
2021/04/27 06:36:22;;;;;;;21.42;11.43;;;;;;;6.73;64.97;91765.03;2041816;70;20155;-85
2021/04/27 06:38:48;;;;;;;21.15;11.82;;;;;;;6.82;64.13;91752.97;2041077;70;20327;-85
2021/04/27 06:41:14;;;;;;;19.73;13.38;;;;;;;7.22;63.40;91751.81;2041616;70;20238;-84
2021/04/27 06:43:40;;;;;;;22.73;12.75;;;;;;;7.60;62.51;91756.06;2041511;70;20151;-83
2021/04/27 06:46:07;;;;;;;20.75;12.88;;;;;;;7.87;61.19;91751.94;2040957;70;20173;-83
2021/04/27 06:48:35;;;;;;;30.55;15.80;;;;;;;7.80;61.71;91753.69;2041605;70;20186;-82
2021/04/27 06:51:02;;;;;;;23.67;14.15;;;;;;;8.24;60.56;91742.72;2041128;70;20143;-83
2021/04/27 06:53:28;;;;;;;26.17;15.20;;;;;;;8.61;60.09;91740.53;2041420;70;20185;-83
2021/04/27 06:55:53;;;;;;;21.05;13.48;;;;;;;8.95;59.42;91745.75;2041902;70;20136;-82
2021/04/27 06:58:19;;;;;;;23.55;12.75;;;;;;;9.26;58.80;91743.13;2043032;70;20140;-83
2021/04/27 07:00:45;;;;;;;16.92;11.55;;;;;;;9.24;57.99;91745.81;2041831;70;20214;-83
2021/04/27 07:03:11;;;;;;;18.33;11.05;;;;;;;10.13;55.82;91740.28;2042015;70;20151;-83
2021/04/27 07:05:37;;;;;;;14.15;10.30;;;;;;;10.28;53.53;91733.25;2042708;70;20151;-83
2021/04/27 07:08:03;;;;;;;14.88;9.60;;;;;;;10.53;52.25;91743.53;2042531;70;20178;-83
2021/04/27 07:10:29;;;;;;;14.50;10.25;;;;;;;10.42;52.28;91740.25;2042687;70;20219;-83
2021/04/27 07:12:54;;;;;;;18.38;10.65;;;;;;;11.09;52.20;91738.97;2042452;70;20156;-83
2021/04/27 07:15:20;;;;;;;21.00;10.15;;;;;;;12.11;50.55;91740.41;2042032;70;20132;-83
2021/04/27 07:17:46;;;;;;;18.00;9.32;;;;;;;12.42;47.94;91736.69;2042501;70;20146;-82
2021/04/27 07:20:13;;;;;;;15.52;10.32;;;;;;;12.50;47.97;91727.78;2042546;70;20162;-83
2021/04/27 07:22:39;;;;;;;18.38;10.15;;;;;;;12.72;46.26;91731.44;2041977;70;20175;-82
2021/04/27 07:25:06;;;;;;;15.50;9.50;;;;;;;12.01;47.69;91723.81;2042614;70;20239;-83
2021/04/27 07:27:31;;;;;;;18.48;9.35;;;;;;;12.98;45.39;91718.28;2042506;70;20603;-82
2021/04/27 07:29:57;;;;;;;14.80;9.38;;;;;;;12.15;48.33;91723.63;2042533;70;20251;-83
2021/04/27 07:32:23;;;;;;;21.40;9.57;;;;;;;12.84;47.42;91722.72;2041969;70;20179;-82
2021/04/27 07:34:49;;;;;;;13.27;9.00;;;;;;;12.52;46.61;91719.41;2042459;70;20139;-82
2021/04/27 07:37:16;;;;;;;13.55;8.85;;;;;;;12.18;46.46;91719.50;2042465;70;20154;-82
2021/04/27 07:39:41;;;;;;;11.98;8.57;;;;;;;13.16;45.01;91709.03;2042501;70;20150;-83
2021/04/27 07:42:07;;;;;;;13.52;8.68;;;;;;;14.57;43.17;91713.66;2042497;70;20622;-78
2021/04/27 07:44:32;;;;;;;14.65;9.02;;;;;;;14.41;42.26;91720.25;2042478;70;20175;-78
2021/04/27 07:46:58;;;;;;;13.20;8.77;;;;;;;15.30;42.08;91718.59;2042550;70;20499;-79
2021/04/27 07:49:24;;;;;;;13.75;8.43;;;;;;;14.71;40.82;91717.66;2042576;70;20526;-78
2021/04/27 07:51:49;;;;;;;14.50;9.27;;;;;;;14.93;39.83;91709.06;2042674;70;20143;-79
2021/04/27 07:54:15;;;;;;;13.43;8.65;;;;;;;15.28;39.51;91704.38;2041810;70;20151;-79
2021/04/27 07:56:41;;;;;;;9.73;7.35;;;;;;;16.11;38.60;91714.38;2042365;70;20181;-79
2021/04/27 07:59:06;;;;;;;12.25;8.18;;;;;;;16.87;36.77;91707.63;2042329;70;20143;-82
2021/04/27 08:01:34;;;;;;;10.30;7.63;;;;;;;17.42;36.06;91700.22;2041882;70;20148;-80
2021/04/27 08:04:01;;;;;;;14.15;8.43;;;;;;;17.06;36.63;91697.38;2042397;70;20235;-79
2021/04/27 08:06:27;;;;;;;11.55;8.18;;;;;;;16.44;35.72;91693.13;2042379;70;20143;-79
2021/04/27 08:08:52;;;;;;;11.40;7.63;;;;;;;18.20;34.82;91696.69;2042429;70;20254;-81
2021/04/27 08:11:18;;;;;;;9.90;6.93;;;;;;;18.41;34.58;91695.59;2042506;70;20151;-80
2021/04/27 08:13:45;;;;;;;11.85;7.95;;;;;;;17.27;35.50;91687.84;2041526;70;20146;-80
2021/04/27 08:16:11;;;;;;;14.82;8.02;;;;;;;17.43;34.14;91690.28;2041309;70;20151;-80
2021/04/27 08:18:37;;;;;;;10.68;8.00;;;;;;;16.30;35.72;91689.97;2041824;70;20550;-79
2021/04/27 08:21:07;;;;;;;11.20;7.82;;;;;;;18.17;33.50;91695.91;2041876;70;20250;-79
2021/04/27 08:23:35;;;;;;;14.15;7.20;;;;;;;16.95;35.42;91685.78;2041842;70;20154;-78
2021/04/27 08:26:02;;;;;;;11.90;7.53;;;;;;;19.12;33.27;91683.81;2041799;70;20154;-79
2021/04/27 08:28:28;;;;;;;11.95;7.32;;;;;;;18.42;32.98;91682.09;2041716;70;20591;-81
2021/04/27 08:30:54;;;;;;;11.63;7.07;;;;;;;19.42;31.36;91684.19;2041940;70;20144;-79
2021/04/27 08:33:20;;;;;;;9.35;6.85;;;;;;;17.69;33.76;91687.94;2041793;70;20146;-76
2021/04/27 08:35:45;;;;;;;9.65;5.80;;;;;;;18.92;30.58;91685.00;2041800;70;20147;-78
2021/04/27 08:38:11;;;;;;;8.70;6.22;;;;;;;20.50;28.85;91671.00;2041278;70;20614;-78
2021/04/27 08:40:36;;;;;;;8.35;6.40;;;;;;;20.48;28.09;91676.72;2041784;70;20147;-77
2021/04/27 08:43:03;;;;;;;10.23;6.50;;;;;;;20.59;28.30;91668.22;2041665;70;20159;-79
2021/04/27 08:45:28;;;;;;;7.95;6.38;;;;;;;20.86;28.59;91669.84;2041892;70;20239;-80
2021/04/27 08:47:55;;;;;;;10.15;6.25;;;;;;;21.49;27.26;91675.91;2041721;70;20143;-78
2021/04/27 08:50:21;;;;;;;10.23;6.68;;;;;;;20.35;28.84;91668.72;2041250;70;20128;-78
2021/04/27 08:52:46;;;;;;;9.00;6.00;;;;;;;20.70;29.60;91669.72;2041793;70;20150;-77
2021/04/27 08:55:13;;;;;;;8.57;6.20;;;;;;;20.80;28.56;91672.66;2041735;70;20530;-80
2021/04/27 08:57:40;;;;;;;12.02;7.20;;;;;;;21.18;28.47;91660.72;2041605;70;20178;-80
2021/04/27 09:00:14;;;;;;;8.68;6.45;;;;;;;21.87;27.04;91662.44;2041700;70;20151;-78
2021/04/27 09:02:40;;;;;;;10.45;6.95;;;;;;;21.69;27.69;91665.97;2041765;70;20148;-78
2021/04/27 09:05:27;;;;;;;8.38;6.25;;;;;;;21.38;27.39;91657.25;2041668;70;20158;-78
2021/04/27 09:07:54;;;;;;;8.00;6.63;;;;;;;20.99;30.49;91654.19;2041727;70;20181;-77
2021/04/27 09:10:23;;;;;;;10.18;6.57;;;;;;;22.08;27.60;91652.44;2041186;70;20308;-78
2021/04/27 09:12:55;;;;;;;7.22;6.20;;;;;;;22.58;28.26;91648.91;2041065;70;20174;-78
2021/04/27 09:15:30;;;;;;;10.13;7.07;;;;;;;20.61;28.21;91640.34;2041772;70;20155;-79
2021/04/27 09:17:56;;;;;;;9.20;6.93;;;;;;;20.09;28.29;91632.78;2041710;70;20173;-79
2021/04/27 09:20:22;;;;;;;15.50;7.55;;;;;;;19.93;29.66;91624.81;2041743;70;20167;-78
2021/04/27 09:22:49;;;;;;;8.45;6.22;;;;;;;21.16;28.31;91625.66;2041171;70;20151;-78
2021/04/27 09:25:15;;;;;;;7.05;5.57;;;;;;;21.88;26.07;91630.19;2041680;70;20143;-80
2021/04/27 09:27:44;;;;;;;8.38;6.60;;;;;;;22.82;26.30;91630.25;2041572;70;20251;-83
2021/04/27 09:30:27;;;;;;;9.05;6.68;;;;;;;21.47;27.09;91618.66;2041700;70;20530;-82
2021/04/27 09:32:55;;;;;;;9.52;7.30;;;;;;;22.41;26.34;91624.56;2041166;70;20151;-79
2021/04/27 09:35:35;;;;;;;8.38;6.68;;;;;;;20.69;27.95;91611.81;2041821;70;20170;-82
2021/04/27 09:38:18;;;;;;;10.80;6.35;;;;;;;22.68;26.07;91615.91;2041690;70;20246;-78
2021/04/27 09:41:05;;;;;;;7.88;6.05;;;;;;;22.93;25.43;91611.59;2041674;70;20655;-79
2021/04/27 09:43:34;;;;;;;10.98;6.63;;;;;;;21.12;27.10;91605.59;2041556;70;20243;-79
2021/04/27 09:46:02;;;;;;;7.85;6.32;;;;;;;25.34;24.25;91599.25;2041623;70;20151;-79
2021/04/27 09:48:35;;;;;;;8.77;6.75;;;;;;;22.17;25.38;91593.72;2041648;70;20563;-79
2021/04/27 09:51:13;;;;;;;7.68;5.53;;;;;;;24.01;24.28;91591.06;2041658;70;20523;-78
2021/04/27 09:53:49;;;;;;;8.27;5.45;;;;;;;26.92;21.70;91597.00;2041569;70;20504;-77
2021/04/27 09:56:34;;;;;;;6.30;5.45;;;;;;;24.40;22.65;91585.03;2041620;70;20152;-80
2021/04/27 09:59:28;;;;;;;7.53;4.70;;;;;;;27.14;21.94;91587.97;2041494;70;20155;-79
2021/04/27 10:02:08;;;;;;;5.60;4.60;;;;;;;26.18;21.57;91583.03;2041765;70;20136;-80
2021/04/27 10:04:35;;;;;;;6.68;4.30;;;;;;;24.14;21.28;91576.56;2041615;70;20484;-80
2021/04/27 10:07:01;;;;;;;5.05;3.60;;;;;;;27.23;19.19;91568.31;2041591;70;20178;-80
2021/04/27 10:09:28;;;;;;;6.65;4.00;;;;;;;27.67;19.27;91571.75;2041612;70;20150;-80
2021/04/27 10:11:56;;;;;;;7.30;3.88;;;;;;;27.49;20.15;91562.00;2041599;70;20143;-80
2021/04/27 10:14:22;;;;;;;4.43;3.20;;;;;;;29.51;18.29;91556.50;2041526;70;20151;-79
2021/04/27 10:16:48;;;;;;;5.75;3.38;;;;;;;28.45;18.29;91559.91;2041524;70;20159;-80
2021/04/27 10:19:15;;;;;;;3.70;3.28;;;;;;;29.22;16.62;91556.56;2041076;70;20199;-79
2021/04/27 10:21:40;;;;;;;3.10;2.78;;;;;;;30.73;16.31;91549.25;2041604;70;20143;-80
2021/04/27 10:24:17;;;;;;;4.82;3.50;;;;;;;27.94;18.28;91549.50;2041690;70;20147;-81
2021/04/27 10:26:46;;;;;;;4.20;3.00;;;;;;;28.61;17.87;91541.47;2041574;70;20171;-87
2021/04/27 10:29:21;;;;;;;4.75;3.10;;;;;;;32.21;16.43;91536.75;2042640;70;20158;-86
2021/04/27 10:32:07;;;;;;;5.78;2.78;;;;;;;33.50;13.27;91538.81;2043440;70;20238;-82
2021/04/27 10:34:33;;;;;;;6.20;3.10;;;;;;;33.04;15.05;91536.34;2041824;70;20653;-84
2021/04/27 10:36:58;;;;;;;3.58;2.90;;;;;;;35.80;12.38;91535.88;2041498;70;20167;-83
2021/04/27 10:39:42;;;;;;;4.43;2.97;;;;;;;37.16;11.86;91535.81;2041801;70;20518;-85
2021/04/27 10:42:17;;;;;;;6.00;3.17;;;;;;;38.67;11.39;91532.56;2041100;70;20496;-84
2021/04/27 10:44:56;;;;;;;4.15;2.90;;;;;;;40.36;10.23;91523.56;2041487;70;20626;-85
2021/04/27 10:47:23;;;;;;;3.63;2.80;;;;;;;37.58;11.50;91523.13;2041773;70;20155;-86
2021/04/27 10:49:53;;;;;;;4.05;2.67;;;;;;;38.61;11.00;91521.91;2041599;70;20153;-77
2021/04/27 10:52:34;;;;;;;5.93;2.85;;;;;;;33.73;13.26;91505.72;2041852;70;20242;-85
2021/04/27 10:55:29;;;;;;;4.05;2.42;;;;;;;38.61;10.63;91509.44;2041084;70;20162;-85
2021/04/27 10:57:59;;;;;;;2.50;2.30;;;;;;;36.14;11.78;91494.56;2041534;70;20218;-85
2021/04/27 11:00:36;;;;;;;3.20;2.00;;;;;;;36.18;11.68;91488.50;2041602;70;20214;-84
2021/04/27 11:03:28;;;;;;;3.47;2.33;;;;;;;36.43;11.31;91490.06;2041613;70;20226;-85
2021/04/27 11:05:57;;;;;;;;;;;;;;;37.18;11.09;91491.69;2041677;70;20159;-86
2021/04/27 11:08:23;;;;;;;4.13;2.17;;;;;;;36.81;10.43;91493.09;2041137;70;20171;-85
2021/04/27 11:10:50;;;;;;;2.80;2.00;;;;;;;34.61;12.00;91482.63;2041777;70;20311;-85
2021/04/27 11:13:16;;;;;;;3.67;2.10;;;;;;;34.77;11.97;91480.41;2041538;70;20131;-86
2021/04/27 11:15:45;;;;;;;2.33;1.88;;;;;;;33.63;12.73;91468.94;2041097;70;20269;-85
2021/04/27 11:18:19;;;;;;;2.45;1.90;;;;;;;41.53;9.42;91478.16;2041531;70;20214;-85
2021/04/27 11:21:05;;;;;;;3.50;1.98;;;;;;;40.36;9.69;91474.13;2041460;70;20521;-84
2021/04/27 11:23:48;;;;;;;3.15;1.90;;;;;;;40.87;9.93;91476.41;2040182;70;20174;-88
2021/04/27 11:33:05;;;;;;;2.75;1.80;;;;;;;42.69;7.82;91461.84;2027186;70;20242;-85
2021/04/27 11:35:41;;;;;;;3.38;1.80;;;;;;;41.20;8.34;91458.56;2027739;70;20137;-83
2021/04/27 11:38:06;;;;;;;3.10;1.70;;;;;;;42.90;8.23;91464.53;2027956;70;20525;-84
2021/04/27 11:40:38;;;;;;;2.50;1.63;;;;;;;42.78;7.60;91459.63;2027933;70;20141;-85
2021/04/27 11:43:12;;;;;;;2.40;1.90;;;;;;;43.24;7.92;91457.34;2027756;70;20144;-83
2021/04/27 11:45:49;;;;;;;5.72;1.70;;;;;;;39.89;9.66;91438.44;2027471;70;20668;-84
2021/04/27 11:48:20;;;;;;;3.10;1.50;;;;;;;45.70;6.82;91449.97;2028290;70;20632;-85
2021/04/27 11:50:47;;;;;;;1.63;1.52;;;;;;;42.44;7.70;91448.31;2028641;70;20154;-84
2021/04/27 11:53:16;;;;;;;4.57;1.92;;;;;;;40.90;8.61;91441.53;2028531;70;20140;-84